Time;durP1;ratioP1;P1;durP2;ratioP2;P2;SDS_P1;SDS_P2;PMS_P1;PMS_P2;Temp;Humidity;BMP_temperature;BMP_pressure;BME280_temperature;BME280_humidity;BME280_pressure;Samples;Min_cycle;Max_cycle;Signal;HPM_P1;HPM_P2
2023/03/02 00:00:40;;;;;;;;;;;;;;;;;;5096651;28;1195;-72
2023/03/02 00:03:06;;;;;;;;;;;;;;;;;;5106614;28;1179;-72
2023/03/02 00:05:32;;;;;;;;;;;;;;;;;;5111008;28;1232;-71
2023/03/02 00:07:58;;;;;;;;;;;;;;;;;;5110847;28;1151;-71
2023/03/02 00:10:24;;;;;;;;;;;;;;;;;;5112653;28;879;-72
2023/03/02 00:12:49;;;;;;;;;;;;;;;;;;5110973;28;1303;-71
2023/03/02 00:15:15;;;;;;;;;;;;;;;;;;5111982;28;903;-71
2023/03/02 00:17:40;;;;;;;;;;;;;;;;;;5110737;28;1893;-71
2023/03/02 00:20:09;;;;;;;;;;;;;;;;;;5112572;28;915;-71
2023/03/02 00:22:35;;;;;;;;;;;;;;;;;;5094867;28;1190;-72
2023/03/02 00:25:01;;;;;;;;;;;;;;;;;;5110845;28;1181;-71
2023/03/02 00:27:28;;;;;;;;;;;;;;;;;;5111699;28;1170;-72
2023/03/02 00:29:54;;;;;;;;;;;;;;;;;;5112009;28;797;-72
2023/03/02 00:32:19;;;;;;;;;;;;;;;;;;5110245;28;920;-72
2023/03/02 00:34:44;;;;;;;;;;;;;;;;;;5093589;28;1108;-72
2023/03/02 00:37:09;;;;;;;;;;;;;;;;;;5110339;28;1975;-72
2023/03/02 00:39:35;;;;;;;;;;;;;;;;;;5112055;28;975;-72
2023/03/02 00:42:00;;;;;;;;;;;;;;;;;;5112618;28;805;-72
2023/03/02 00:44:25;;;;;;;;;;;;;;;;;;5114683;28;825;-73
2023/03/02 00:46:50;;;;;;;;;;;;;;;;;;5097294;28;1201;-72
2023/03/02 00:49:16;;;;;;;;;;;;;;;;;;5114120;28;1428;-72
2023/03/02 00:51:41;;;;;;;;;;;;;;;;;;5114176;28;1015;-73
2023/03/02 00:54:06;;;;;;;;;;;;;;;;;;5114657;28;882;-72
2023/03/02 00:56:32;;;;;;;;;;;;;;;;;;5097608;28;1969;-72
2023/03/02 00:58:57;;;;;;;;;;;;;;;;;;5113641;28;1170;-72
2023/03/02 01:01:22;;;;;;;;;;;;;;;;;;5096729;28;1329;-73
2023/03/02 01:03:48;;;;;;;;;;;;;;;;;;5115022;28;816;-73
2023/03/02 01:06:14;;;;;;;;;;;;;;;;;;5113458;28;836;-72
2023/03/02 01:08:39;;;;;;;;;;;;;;;;;;5113442;28;1327;-73
2023/03/02 01:11:11;;;;;;;;;;;;;;;;;;5113606;28;925;-72
2023/03/02 01:13:39;;;;;;;;;;;;;;;;;;5114748;28;855;-72
2023/03/02 01:16:04;;;;;;;;;;;;;;;;;;5096318;28;1981;-72
2023/03/02 01:18:31;;;;;;;;;;;;;;;;;;5113650;28;932;-72
2023/03/02 01:21:04;;;;;;;;;;;;;;;;;;5096609;28;1347;-72
2023/03/02 01:23:29;;;;;;;;;;;;;;;;;;5113007;28;915;-72
2023/03/02 01:25:54;;;;;;;;;;;;;;;;;;5114643;28;855;-72
2023/03/02 01:28:20;;;;;;;;;;;;;;;;;;5096472;28;1282;-72
2023/03/02 01:30:46;;;;;;;;;;;;;;;;;;5113164;28;903;-72
2023/03/02 01:33:11;;;;;;;;;;;;;;;;;;5112956;28;1146;-72
2023/03/02 01:35:36;;;;;;;;;;;;;;;;;;5114851;28;1913;-72
2023/03/02 01:38:02;;;;;;;;;;;;;;;;;;5096653;28;1356;-73
2023/03/02 01:40:27;;;;;;;;;;;;;;;;;;5114780;28;864;-73
2023/03/02 01:42:57;;;;;;;;;;;;;;;;;;5112927;28;1237;-72
2023/03/02 01:45:43;;;;;;;;;;;;;;;;;;5115108;28;892;-72
2023/03/02 01:48:09;;;;;;;;;;;;;;;;;;5113173;28;1312;-73
2023/03/02 01:50:35;;;;;;;;;;;;;;;;;;5114857;28;907;-73
2023/03/02 01:53:00;;;;;;;;;;;;;;;;;;5113914;28;944;-72
2023/03/02 01:55:28;;;;;;;;;;;;;;;;;;5113016;28;1957;-72
2023/03/02 01:57:55;;;;;;;;;;;;;;;;;;5114478;28;977;-72
2023/03/02 02:00:22;;;;;;;;;;;;;;;;;;5114535;28;859;-73
2023/03/02 02:02:48;;;;;;;;;;;;;;;;;;5112957;28;1249;-72
2023/03/02 02:05:18;;;;;;;;;;;;;;;;;;5114023;28;891;-73
2023/03/02 02:07:43;;;;;;;;;;;;;;;;;;5114117;28;942;-73
2023/03/02 02:10:09;;;;;;;;;;;;;;;;;;5113887;28;907;-73
2023/03/02 02:12:34;;;;;;;;;;;;;;;;;;5113028;28;1352;-73
2023/03/02 02:15:00;;;;;;;;;;;;;;;;;;5112691;28;1101;-73
2023/03/02 02:17:27;;;;;;;;;;;;;;;;;;5113122;28;1914;-73
2023/03/02 02:20:11;;;;;;;;;;;;;;;;;;5112359;28;1281;-72
2023/03/02 02:22:49;;;;;;;;;;;;;;;;;;5112248;28;1233;-72
2023/03/02 02:25:21;;;;;;;;;;;;;;;;;;5113130;28;824;-72
2023/03/02 02:27:46;;;;;;;;;;;;;;;;;;5112111;28;1213;-73
2023/03/02 02:30:13;;;;;;;;;;;;;;;;;;5113296;27;979;-72
2023/03/02 02:32:40;;;;;;;;;;;;;;;;;;5112016;28;1296;-73
2023/03/02 02:35:10;;;;;;;;;;;;;;;;;;5113454;28;962;-73
2023/03/02 02:37:41;;;;;;;;;;;;;;;;;;5113425;28;1973;-72
2023/03/02 02:40:11;;;;;;;;;;;;;;;;;;5113286;28;844;-73
2023/03/02 02:42:39;;;;;;;;;;;;;;;;;;5113018;28;1129;-73
2023/03/02 02:45:06;;;;;;;;;;;;;;;;;;5113406;28;855;-72
2023/03/02 02:47:32;;;;;;;;;;;;;;;;;;5110995;28;1269;-72
2023/03/02 02:49:58;;;;;;;;;;;;;;;;;;5113417;27;891;-73
2023/03/02 02:52:25;;;;;;;;;;;;;;;;;;5111353;28;1252;-73
2023/03/02 02:54:52;;;;;;;;;;;;;;;;;;5113130;28;966;-72
2023/03/02 02:57:18;;;;;;;;;;;;;;;;;;5111568;28;1906;-73
2023/03/02 02:59:48;;;;;;;;;;;;;;;;;;5111392;28;1320;-72
2023/03/02 03:02:18;;;;;;;;;;;;;;;;;;5112640;28;856;-72
2023/03/02 03:04:43;;;;;;;;;;;;;;;;;;5112036;28;856;-73
2023/03/02 03:07:09;;;;;;;;;;;;;;;;;;5111438;28;840;-72
2023/03/02 03:09:34;;;;;;;;;;;;;;;;;;5111828;28;1146;-73
2023/03/02 03:12:01;;;;;;;;;;;;;;;;;;5094738;28;1428;-73
2023/03/02 03:14:33;;;;;;;;;;;;;;;;;;5111549;28;1165;-73
2023/03/02 03:16:59;;;;;;;;;;;;;;;;;;5113020;28;1974;-72
2023/03/02 03:19:28;;;;;;;;;;;;;;;;;;5111540;28;856;-72
2023/03/02 03:21:55;;;;;;;;;;;;;;;;;;5112691;28;899;-73
2023/03/02 03:24:20;;;;;;;;;;;;;;;;;;5112558;28;1335;-72
2023/03/02 03:26:46;;;;;;;;;;;;;;;;;;5111520;28;821;-73
2023/03/02 03:29:12;;;;;;;;;;;;;;;;;;5112649;28;879;-73
2023/03/02 03:31:37;;;;;;;;;;;;;;;;;;5094387;28;1186;-72
2023/03/02 03:34:03;;;;;;;;;;;;;;;;;;5111167;28;1190;-72
2023/03/02 03:36:29;;;;;;;;;;;;;;;;;;5110780;28;1906;-73
2023/03/02 03:38:55;;;;;;;;;;;;;;;;;;5112206;28;995;-72
2023/03/02 03:41:22;;;;;;;;;;;;;;;;;;5111155;28;1161;-72
2023/03/02 03:43:48;;;;;;;;;;;;;;;;;;5110670;28;1244;-72
2023/03/02 03:46:14;;;;;;;;;;;;;;;;;;5112436;28;852;-72
2023/03/02 03:48:39;;;;;;;;;;;;;;;;;;5094233;28;1312;-72
2023/03/02 03:51:05;;;;;;;;;;;;;;;;;;5094179;28;1099;-72
2023/03/02 03:53:30;;;;;;;;;;;;;;;;;;5110455;28;1158;-73
2023/03/02 03:55:56;;;;;;;;;;;;;;;;;;5112331;28;2010;-72
2023/03/02 03:58:22;;;;;;;;;;;;;;;;;;5111946;28;907;-72
2023/03/02 04:00:47;;;;;;;;;;;;;;;;;;5110521;28;1276;-73
2023/03/02 04:03:16;;;;;;;;;;;;;;;;;;5112247;28;907;-73
2023/03/02 04:05:41;;;;;;;;;;;;;;;;;;5111865;28;836;-72
2023/03/02 04:08:07;;;;;;;;;;;;;;;;;;5111824;28;919;-74
2023/03/02 04:10:32;;;;;;;;;;;;;;;;;;5111080;28;847;-72
2023/03/02 04:12:58;;;;;;;;;;;;;;;;;;5110871;28;1197;-72
2023/03/02 04:15:23;;;;;;;;;;;;;;;;;;5111690;28;1172;-72
2023/03/02 04:17:49;;;;;;;;;;;;;;;;;;5114302;28;1957;-72
2023/03/02 04:20:17;;;;;;;;;;;;;;;;;;5097914;28;1284;-73
2023/03/02 04:22:43;;;;;;;;;;;;;;;;;;5114291;28;1105;-72
2023/03/02 04:25:09;;;;;;;;;;;;;;;;;;5097647;28;1182;-73
2023/03/02 04:27:34;;;;;;;;;;;;;;;;;;5114381;28;1325;-72
2023/03/02 04:29:59;;;;;;;;;;;;;;;;;;5116061;28;805;-73
2023/03/02 04:32:25;;;;;;;;;;;;;;;;;;5097358;28;1281;-72
2023/03/02 04:34:50;;;;;;;;;;;;;;;;;;5114985;28;919;-72
2023/03/02 04:37:15;;;;;;;;;;;;;;;;;;5114679;28;1953;-72
2023/03/02 04:39:41;;;;;;;;;;;;;;;;;;5114291;28;1027;-72
2023/03/02 04:42:06;;;;;;;;;;;;;;;;;;5114900;28;1032;-73
2023/03/02 04:44:32;;;;;;;;;;;;;;;;;;5097645;28;1284;-72
2023/03/02 04:46:57;;;;;;;;;;;;;;;;;;5097083;28;1138;-72
2023/03/02 04:49:22;;;;;;;;;;;;;;;;;;5115572;28;1231;-73
2023/03/02 04:51:48;;;;;;;;;;;;;;;;;;5114324;28;1182;-73
2023/03/02 04:54:16;;;;;;;;;;;;;;;;;;5114017;28;1335;-72
2023/03/02 04:56:41;;;;;;;;;;;;;;;;;;5113537;28;1963;-72
2023/03/02 04:59:06;;;;;;;;;;;;;;;;;;5115451;28;820;-73
2023/03/02 05:01:32;;;;;;;;;;;;;;;;;;5115400;28;813;-73
2023/03/02 05:03:57;;;;;;;;;;;;;;;;;;5115008;28;997;-73
2023/03/02 05:06:24;;;;;;;;;;;;;;;;;;5113993;28;1240;-72
2023/03/02 05:08:49;;;;;;;;;;;;;;;;;;5113855;28;1178;-73
2023/03/02 05:11:20;;;;;;;;;;;;;;;;;;5113838;28;879;-72
2023/03/02 05:13:46;;;;;;;;;;;;;;;;;;5113391;28;1316;-72
2023/03/02 05:16:12;;;;;;;;;;;;;;;;;;5115051;28;1901;-72
2023/03/02 05:18:37;;;;;;;;;;;;;;;;;;5113498;28;934;-72
2023/03/02 05:21:02;;;;;;;;;;;;;;;;;;5096529;28;1163;-72
2023/03/02 05:23:30;;;;;;;;;;;;;;;;;;5114621;28;828;-72
2023/03/02 05:25:55;;;;;;;;;;;;;;;;;;5113113;28;1337;-72
2023/03/02 05:28:22;;;;;;;;;;;;;;;;;;5114174;28;900;-72
2023/03/02 05:30:48;;;;;;;;;;;;;;;;;;5113300;28;1300;-72
2023/03/02 05:33:13;;;;;;;;;;;;;;;;;;5115087;28;848;-73
2023/03/02 05:35:39;;;;;;;;;;;;;;;;;;5114514;28;1957;-72
2023/03/02 05:38:04;;;;;;;;;;;;;;;;;;5113301;28;1432;-72
2023/03/02 05:40:30;;;;;;;;;;;;;;;;;;5096467;28;1142;-72
2023/03/02 05:42:55;;;;;;;;;;;;;;;;;;5113041;28;1260;-72
2023/03/02 05:45:26;;;;;;;;;;;;;;;;;;5112708;28;1118;-72
2023/03/02 05:47:51;;;;;;;;;;;;;;;;;;5112762;28;1304;-72
2023/03/02 05:50:17;;;;;;;;;;;;;;;;;;5112470;28;1197;-72
2023/03/02 05:52:44;;;;;;;;;;;;;;;;;;5113878;28;1046;-73
2023/03/02 05:55:09;;;;;;;;;;;;;;;;;;5113158;28;880;-72
2023/03/02 05:57:34;;;;;;;;;;;;;;;;;;5095441;28;1906;-72
2023/03/02 06:00:00;;;;;;;;;;;;;;;;;;5113806;28;824;-72
2023/03/02 06:02:26;;;;;;;;;;;;;;;;;;5095992;28;1206;-72
2023/03/02 06:04:51;;;;;;;;;;;;;;;;;;5112446;28;1108;-72
2023/03/02 06:07:16;;;;;;;;;;;;;;;;;;5095771;28;1139;-72
2023/03/02 06:09:42;;;;;;;;;;;;;;;;;;5095537;28;1178;-72
2023/03/02 06:12:07;;;;;;;;;;;;;;;;;;5113870;28;899;-72
2023/03/02 06:14:33;;;;;;;;;;;;;;;;;;5112685;28;1370;-72
2023/03/02 06:16:58;;;;;;;;;;;;;;;;;;5112491;28;1961;-72
2023/03/02 06:19:24;;;;;;;;;;;;;;;;;;5113132;28;1152;-72
2023/03/02 06:21:49;;;;;;;;;;;;;;;;;;5112691;28;1195;-72
2023/03/02 06:24:14;;;;;;;;;;;;;;;;;;5114183;28;840;-71
2023/03/02 06:26:39;;;;;;;;;;;;;;;;;;5095823;28;1168;-72
2023/03/02 06:29:06;;;;;;;;;;;;;;;;;;5113079;28;1465;-72
2023/03/02 06:31:32;;;;;;;;;;;;;;;;;;5095902;28;1098;-72
2023/03/02 06:33:57;;;;;;;;;;;;;;;;;;5113615;28;879;-72
2023/03/02 06:36:22;;;;;;;;;;;;;;;;;;5096093;28;1993;-72
2023/03/02 06:38:48;;;;;;;;;;;;;;;;;;5111080;28;942;-72
2023/03/02 06:41:13;;;;;;;;;;;;;;;;;;5114159;28;800;-72
2023/03/02 06:43:38;;;;;;;;;;;;;;;;;;5113735;27;871;-72
2023/03/02 06:46:04;;;;;;;;;;;;;;;;;;5112172;28;1154;-72
2023/03/02 06:48:29;;;;;;;;;;;;;;;;;;5095132;28;1221;-71
2023/03/02 06:50:54;;;;;;;;;;;;;;;;;;5094888;28;1222;-71
2023/03/02 06:53:22;;;;;;;;;;;;;;;;;;5112372;28;817;-72
2023/03/02 06:55:47;;;;;;;;;;;;;;;;;;5111462;28;1882;-72
2023/03/02 06:58:12;;;;;;;;;;;;;;;;;;5106316;28;1285;-72
2023/03/02 07:00:38;;;;;;;;;;;;;;;;;;5102840;28;1310;-72
2023/03/02 07:03:03;;;;;;;;;;;;;;;;;;5095257;28;1167;-72
2023/03/02 07:05:31;;;;;;;;;;;;;;;;;;5113062;28;824;-72
2023/03/02 07:07:56;;;;;;;;;;;;;;;;;;5111734;28;1221;-72
2023/03/02 07:10:21;;;;;;;;;;;;;;;;;;5113153;28;840;-77
2023/03/02 07:12:47;;;;;;;;;;;;;;;;;;5111041;28;793;-72
2023/03/02 07:15:13;;;;;;;;;;;;;;;;;;5111423;28;1035;-72
2023/03/02 07:17:38;;;;;;;;;;;;;;;;;;5110895;28;1967;-72
2023/03/02 07:20:05;;;;;;;;;;;;;;;;;;5112673;28;844;-72
2023/03/02 07:22:30;;;;;;;;;;;;;;;;;;5112648;28;887;-72
2023/03/02 07:24:56;;;;;;;;;;;;;;;;;;5110604;28;1171;-72
2023/03/02 07:27:21;;;;;;;;;;;;;;;;;;5112325;28;1142;-72
2023/03/02 07:29:46;;;;;;;;;;;;;;;;;;5094007;28;1247;-72
2023/03/02 07:32:12;;;;;;;;;;;;;;;;;;5093960;28;1096;-72
2023/03/02 07:34:37;;;;;;;;;;;;;;;;;;5112012;28;926;-71
2023/03/02 07:37:03;;;;;;;;;;;;;;;;;;5111046;28;1956;-73
2023/03/02 07:39:28;;;;;;;;;;;;;;;;;;5112562;28;882;-72
2023/03/02 07:41:56;;;;;;;;;;;;;;;;;;5110936;28;902;-72
2023/03/02 07:44:22;;;;;;;;;;;;;;;;;;5112863;28;1038;-73
2023/03/02 07:46:47;;;;;;;;;;;;;;;;;;5112487;28;816;-72
2023/03/02 07:49:12;;;;;;;;;;;;;;;;;;5112979;28;1107;-72
2023/03/02 07:51:37;;;;;;;;;;;;;;;;;;5094316;28;1199;-72
2023/03/02 07:54:03;;;;;;;;;;;;;;;;;;5111872;28;813;-73
2023/03/02 07:56:29;;;;;;;;;;;;;;;;;;5112446;28;1957;-73
2023/03/02 07:58:54;;;;;;;;;;;;;;;;;;5110957;28;1039;-73
2023/03/02 08:01:19;;;;;;;;;;;;;;;;;;5112434;28;1058;-73
2023/03/02 08:03:45;;;;;;;;;;;;;;;;;;5112057;28;891;-73
2023/03/02 08:06:10;;;;;;;;;;;;;;;;;;5110528;28;1248;-72
2023/03/02 08:08:39;;;;;;;;;;;;;;;;;;5093965;28;1158;-73
2023/03/02 08:11:06;;;;;;;;;;;;;;;;;;5112201;28;857;-72
2023/03/02 08:13:32;;;;;;;;;;;;;;;;;;5110792;28;1238;-73
2023/03/02 08:16:01;;;;;;;;;;;;;;;;;;5110438;28;1902;-72
2023/03/02 08:18:26;;;;;;;;;;;;;;;;;;5110945;28;1348;-72
2023/03/02 08:20:53;;;;;;;;;;;;;;;;;;5093328;28;1222;-72
2023/03/02 08:23:18;;;;;;;;;;;;;;;;;;5110646;28;1292;-72
2023/03/02 08:25:43;;;;;;;;;;;;;;;;;;5110777;28;903;-72
2023/03/02 08:28:09;;;;;;;;;;;;;;;;;;5111742;28;906;-72
2023/03/02 08:30:34;;;;;;;;;;;;;;;;;;5110853;28;820;-72
2023/03/02 08:32:59;;;;;;;;;;;;;;;;;;5111299;28;978;-72
2023/03/02 08:35:24;;;;;;;;;;;;;;;;;;5110648;28;1061;-72
2023/03/02 08:37:50;;;;;;;;;;;;;;;;;;5111470;28;1918;-72
2023/03/02 08:40:15;;;;;;;;;;;;;;;;;;5093741;28;1195;-72
2023/03/02 08:42:40;;;;;;;;;;;;;;;;;;5111960;28;746;-71
2023/03/02 08:45:06;;;;;;;;;;;;;;;;;;5110763;28;954;-71
2023/03/02 08:47:32;;;;;;;;;;;;;;;;;;5093437;28;1324;-72
2023/03/02 08:49:57;;;;;;;;;;;;;;;;;;5093587;28;1183;-72
2023/03/02 08:52:22;;;;;;;;;;;;;;;;;;5110300;28;1380;-72
2023/03/02 08:54:47;;;;;;;;;;;;;;;;;;5110461;28;1138;-74
2023/03/02 08:57:13;;;;;;;;;;;;;;;;;;5110277;28;1963;-73
2023/03/02 08:59:38;;;;;;;;;;;;;;;;;;5099919;28;1202;-74
2023/03/02 09:02:03;;;;;;;;;;;;;;;;;;5107832;28;1183;-73
2023/03/02 09:04:29;;;;;;;;;;;;;;;;;;5114518;28;1256;-73
2023/03/02 09:06:54;;;;;;;;;;;;;;;;;;5115330;28;887;-73
2023/03/02 09:09:19;;;;;;;;;;;;;;;;;;5097117;28;1131;-73
2023/03/02 09:11:45;;;;;;;;;;;;;;;;;;5114321;28;1304;-72
2023/03/02 09:14:10;;;;;;;;;;;;;;;;;;5110701;28;1076;-73
2023/03/02 09:16:35;;;;;;;;;;;;;;;;;;5097546;28;1910;-73
2023/03/02 09:19:01;;;;;;;;;;;;;;;;;;5076469;28;1349;-72
2023/03/02 09:21:27;;;;;;;;;;;;;;;;;;5093735;28;1146;-73
2023/03/02 09:23:54;;;;;;;;;;;;;;;;;;5093758;28;1126;-73
2023/03/02 09:26:20;;;;;;;;;;;;;;;;;;5094914;28;899;-73
2023/03/02 09:28:45;;;;;;;;;;;;;;;;;;5093947;28;1130;-73
2023/03/02 09:31:10;;;;;;;;;;;;;;;;;;5076207;28;1199;-73
2023/03/02 09:33:36;;;;;;;;;;;;;;;;;;5093072;28;1299;-73
2023/03/02 09:36:05;;;;;;;;;;;;;;;;;;5075899;28;1902;-73
2023/03/02 09:38:30;;;;;;;;;;;;;;;;;;5093201;28;1160;-73
2023/03/02 09:40:56;;;;;;;;;;;;;;;;;;5076266;28;1195;-73
2023/03/02 09:43:27;;;;;;;;;;;;;;;;;;5093501;28;1376;-73
2023/03/02 09:45:55;;;;;;;;;;;;;;;;;;5094075;28;829;-73
2023/03/02 09:48:47;;;;;;;;;;;;;;;;;;5093088;28;1130;-73
2023/03/02 09:51:15;;;;;;;;;;;;;;;;;;5069169;28;1294;-73
2023/03/02 09:53:52;;;;;;;;;;;;;;;;;;5094899;28;840;-74
2023/03/02 09:56:18;;;;;;;;;;;;;;;;;;5092981;28;1906;-73
2023/03/02 09:58:48;;;;;;;;;;;;;;;;;;5094138;28;908;-73
2023/03/02 10:01:15;;;;;;;;;;;;;;;;;;5093220;28;1118;-73
2023/03/02 10:03:47;;;;;;;;;;;;;;;;;;5093166;28;1193;-73
2023/03/02 10:06:12;;;;;;;;;;;;;;;;;;5092812;28;1371;-73
2023/03/02 10:08:39;;;;;;;;;;;;;;;;;;5092987;28;1169;-73
2023/03/02 10:11:23;;;;;;;;;;;;;;;;;;5092738;28;1174;-74
2023/03/02 10:14:02;;;;;;;;;;;;;;;;;;5093336;28;998;-74
2023/03/02 10:16:31;;;;;;;;;;;;;;;;;;5092655;28;1959;-73
2023/03/02 10:19:05;;;;;;;;;;;;;;;;;;5092739;28;1158;-73
2023/03/02 10:21:41;;;;;;;;;;;;;;;;;;5092686;28;1276;-73
2023/03/02 10:24:15;;;;;;;;;;;;;;;;;;5094054;28;805;-73
2023/03/02 10:26:42;;;;;;;;;;;;;;;;;;5093925;28;974;-73
2023/03/02 10:29:27;;;;;;;;;;;;;;;;;;5092406;28;1261;-73
2023/03/02 10:31:57;;;;;;;;;;;;;;;;;;5072024;28;1060;-73
2023/03/02 10:34:25;;;;;;;;;;;;;;;;;;5126852;27;1046;-74
2023/03/02 10:36:50;;;;;;;;;;;;;;;;;;5092280;28;1968;-73
2023/03/02 10:39:16;;;;;;;;;;;;;;;;;;5076035;28;1246;-74
2023/03/02 10:42:04;;;;;;;;;;;;;;;;;;5094130;28;824;-74
2023/03/02 10:44:40;;;;;;;;;;;;;;;;;;5093952;28;939;-73
2023/03/02 10:47:07;;;;;;;;;;;;;;;;;;5094164;28;923;-75
2023/03/02 10:49:34;;;;;;;;;;;;;;;;;;5094228;28;1159;-75
2023/03/02 10:51:59;;;;;;;;;;;;;;;;;;5093244;28;996;-74
2023/03/02 10:54:25;;;;;;;;;;;;;;;;;;5093468;28;832;-72
2023/03/02 10:56:52;;;;;;;;;;;;;;;;;;5092988;28;1973;-73
2023/03/02 10:59:24;;;;;;;;;;;;;;;;;;5091672;28;1194;-74
2023/03/02 11:02:02;;;;;;;;;;;;;;;;;;5092845;28;1007;-74
2023/03/02 11:04:29;;;;;;;;;;;;;;;;;;5093114;28;809;-75
2023/03/02 11:06:54;;;;;;;;;;;;;;;;;;5091205;28;1272;-74
2023/03/02 11:09:20;;;;;;;;;;;;;;;;;;5093035;28;864;-74
2023/03/02 11:11:52;;;;;;;;;;;;;;;;;;5091677;28;1229;-74
2023/03/02 11:14:17;;;;;;;;;;;;;;;;;;5091490;28;1246;-75
2023/03/02 11:16:43;;;;;;;;;;;;;;;;;;5091185;28;1901;-74
2023/03/02 11:19:26;;;;;;;;;;;;;;;;;;5092347;28;1042;-74
2023/03/02 11:21:59;;;;;;;;;;;;;;;;;;5092129;28;883;-75
2023/03/02 11:24:43;;;;;;;;;;;;;;;;;;5090880;28;1166;-74
2023/03/02 11:27:14;;;;;;;;;;;;;;;;;;5090937;28;1126;-74
2023/03/02 11:29:39;;;;;;;;;;;;;;;;;;5092506;28;1071;-74
2023/03/02 11:32:07;;;;;;;;;;;;;;;;;;5090872;28;1383;-74
2023/03/02 11:34:55;;;;;;;;;;;;;;;;;;5093608;28;749;-74
2023/03/02 11:37:39;;;;;;;;;;;;;;;;;;5091086;28;1965;-74
2023/03/02 11:40:08;;;;;;;;;;;;;;;;;;5091113;28;1217;-73
2023/03/02 11:42:34;;;;;;;;;;;;;;;;;;5091089;28;1296;-74
2023/03/02 11:45:02;;;;;;;;;;;;;;;;;;5090204;28;1189;-74
2023/03/02 11:47:30;;;;;;;;;;;;;;;;;;5089642;28;1199;-74
2023/03/02 11:49:58;;;;;;;;;;;;;;;;;;5092058;28;1112;-74
2023/03/02 11:52:29;;;;;;;;;;;;;;;;;;5092422;28;949;-73
2023/03/02 11:54:54;;;;;;;;;;;;;;;;;;5091174;28;1276;-74
2023/03/02 11:57:32;;;;;;;;;;;;;;;;;;5091352;28;1906;-74
2023/03/02 11:59:58;;;;;;;;;;;;;;;;;;5092885;28;844;-74
2023/03/02 12:02:24;;;;;;;;;;;;;;;;;;5091440;28;1198;-74
2023/03/02 12:05:00;;;;;;;;;;;;;;;;;;5092663;28;784;-74
2023/03/02 12:07:26;;;;;;;;;;;;;;;;;;5091060;28;1143;-74
2023/03/02 12:09:59;;;;;;;;;;;;;;;;;;5091577;28;804;-74
2023/03/02 12:12:24;;;;;;;;;;;;;;;;;;5091844;28;1332;-73
2023/03/02 12:14:51;;;;;;;;;;;;;;;;;;5091941;28;1115;-73
2023/03/02 12:17:19;;;;;;;;;;;;;;;;;;5094029;28;1902;-72
2023/03/02 12:19:44;;;;;;;;;;;;;;;;;;5096809;28;895;-71
2023/03/02 12:22:12;;;;;;;;;;;;;;;;;;5094881;28;888;-73
2023/03/02 12:24:39;;;;;;;;;;;;;;;;;;5095599;28;836;-74
2023/03/02 12:27:19;;;;;;;;;;;;;;;;;;5095192;28;896;-74
2023/03/02 12:29:47;;;;;;;;;;;;;;;;;;5092645;28;836;-74
2023/03/02 12:32:18;;;;;;;;;;;;;;;;;;5092529;28;836;-74
2023/03/02 12:34:59;;;;;;;;;;;;;;;;;;5091879;28;1236;-74
2023/03/02 12:37:26;;;;;;;;;;;;;;;;;;5094727;28;1886;-74
2023/03/02 12:39:57;;;;;;;;;;;;;;;;;;5096844;28;884;-73
2023/03/02 12:42:23;;;;;;;;;;;;;;;;;;5094791;28;1417;-72
2023/03/02 12:45:02;;;;;;;;;;;;;;;;;;5095006;28;1087;-72
2023/03/02 12:47:28;;;;;;;;;;;;;;;;;;5096189;28;880;-73
2023/03/02 12:49:54;;;;;;;;;;;;;;;;;;5094492;28;1108;-72
2023/03/02 12:52:30;;;;;;;;;;;;;;;;;;5095819;28;941;-74
2023/03/02 12:55:08;;;;;;;;;;;;;;;;;;5094882;28;1205;-73
2023/03/02 12:57:37;;;;;;;;;;;;;;;;;;5095246;28;1906;-73
2023/03/02 13:00:03;;;;;;;;;;;;;;;;;;5094243;28;1297;-75
2023/03/02 13:02:30;;;;;;;;;;;;;;;;;;5094044;28;1471;-75
2023/03/02 13:04:56;;;;;;;;;;;;;;;;;;5093866;28;1182;-74
2023/03/02 13:07:24;;;;;;;;;;;;;;;;;;5093647;28;1381;-75
2023/03/02 13:09:51;;;;;;;;;;;;;;;;;;5095068;28;875;-74
2023/03/02 13:12:16;;;;;;;;;;;;;;;;;;5093770;28;1307;-74
2023/03/02 13:14:43;;;;;;;;;;;;;;;;;;5076741;28;1267;-74
2023/03/02 13:17:41;;;;;;;;;;;;;;;;;;5093388;28;1930;-75
2023/03/02 13:20:06;;;;;;;;;;;;;;;;;;5059845;28;1168;-75
2023/03/02 13:22:32;;;;;;;;;;;;;;;;;;5095450;28;809;-74
2023/03/02 13:25:02;;;;;;;;;;;;;;;;;;5093913;28;896;-74
2023/03/02 13:27:28;;;;;;;;;;;;;;;;;;5093378;28;1297;-74
2023/03/02 13:29:56;;;;;;;;;;;;;;;;;;5094861;28;824;-75
2023/03/02 13:32:23;;;;;;;;;;;;;;;;;;5093397;28;1331;-75
2023/03/02 13:34:52;;;;;;;;;;;;;;;;;;5095065;28;832;-74
2023/03/02 13:37:20;;;;;;;;;;;;;;;;;;5094627;28;1901;-74
2023/03/02 13:39:53;;;;;;;;;;;;;;;;;;5093296;28;1221;-75
2023/03/02 13:42:26;;;;;;;;;;;;;;;;;;5094009;28;939;-74
2023/03/02 13:44:51;;;;;;;;;;;;;;;;;;5094662;28;947;-76
2023/03/02 13:47:20;;;;;;;;;;;;;;;;;;5092716;28;1297;-74
2023/03/02 13:49:45;;;;;;;;;;;;;;;;;;5093527;28;1096;-73
2023/03/02 13:52:21;;;;;;;;;;;;;;;;;;5092608;28;1059;-72
2023/03/02 13:54:46;;;;;;;;;;;;;;;;;;5094233;28;879;-72
2023/03/02 13:57:17;;;;;;;;;;;;;;;;;;5093479;28;2354;-72
2023/03/02 13:59:42;;;;;;;;;;;;;;;;;;5092672;28;1179;-72
2023/03/02 14:02:24;;;;;;;;;;;;;;;;;;5092331;28;1139;-72
2023/03/02 14:04:50;;;;;;;;;;;;;;;;;;5093990;28;852;-73
2023/03/02 14:07:16;;;;;;;;;;;;;;;;;;5091803;28;1264;-72
2023/03/02 14:09:41;;;;;;;;;;;;;;;;;;5093743;28;860;-72
2023/03/02 14:12:07;;;;;;;;;;;;;;;;;;5093809;28;840;-72
2023/03/02 14:14:34;;;;;;;;;;;;;;;;;;5092009;28;922;-72
2023/03/02 14:17:00;;;;;;;;;;;;;;;;;;5093536;28;1951;-72
2023/03/02 14:19:25;;;;;;;;;;;;;;;;;;5093705;28;907;-73
2023/03/02 14:21:50;;;;;;;;;;;;;;;;;;5093747;28;867;-73
2023/03/02 14:24:15;;;;;;;;;;;;;;;;;;5092416;28;911;-73
2023/03/02 14:26:46;;;;;;;;;;;;;;;;;;5092894;28;1089;-73
2023/03/02 14:29:23;;;;;;;;;;;;;;;;;;5092453;28;1158;-73
2023/03/02 14:31:49;;;;;;;;;;;;;;;;;;5093722;28;813;-72
2023/03/02 14:34:15;;;;;;;;;;;;;;;;;;5091924;28;1213;-72
2023/03/02 14:36:42;;;;;;;;;;;;;;;;;;5075290;28;1905;-73
2023/03/02 14:39:17;;;;;;;;;;;;;;;;;;5092444;28;1272;-73
2023/03/02 14:41:43;;;;;;;;;;;;;;;;;;5092255;28;1201;-72
2023/03/02 14:44:09;;;;;;;;;;;;;;;;;;5075467;28;1313;-73
2023/03/02 14:46:35;;;;;;;;;;;;;;;;;;5092769;28;1277;-73
2023/03/02 14:49:00;;;;;;;;;;;;;;;;;;5075016;28;1223;-73
2023/03/02 14:51:27;;;;;;;;;;;;;;;;;;5093241;28;889;-73
2023/03/02 14:53:54;;;;;;;;;;;;;;;;;;5092289;28;1131;-73
2023/03/02 14:56:21;;;;;;;;;;;;;;;;;;5093726;28;1910;-73
2023/03/02 14:58:47;;;;;;;;;;;;;;;;;;5092148;28;813;-73
2023/03/02 15:01:12;;;;;;;;;;;;;;;;;;5092337;28;982;-72
2023/03/02 15:03:37;;;;;;;;;;;;;;;;;;5091339;28;1205;-72
2023/03/02 15:06:03;;;;;;;;;;;;;;;;;;5091574;28;893;-72
2023/03/02 15:08:29;;;;;;;;;;;;;;;;;;5092174;28;825;-72
2023/03/02 15:10:54;;;;;;;;;;;;;;;;;;5092236;28;817;-73
2023/03/02 15:13:19;;;;;;;;;;;;;;;;;;5091454;28;1166;-72
2023/03/02 15:15:45;;;;;;;;;;;;;;;;;;5091252;28;900;-72
2023/03/02 15:18:11;;;;;;;;;;;;;;;;;;5074652;28;1973;-72
2023/03/02 15:20:36;;;;;;;;;;;;;;;;;;5091477;28;1308;-73
2023/03/02 15:23:02;;;;;;;;;;;;;;;;;;5092205;28;907;-73
2023/03/02 15:25:27;;;;;;;;;;;;;;;;;;5089318;28;1167;-72
2023/03/02 15:27:54;;;;;;;;;;;;;;;;;;5090758;28;1308;-71
2023/03/02 15:30:19;;;;;;;;;;;;;;;;;;5092202;28;824;-71
2023/03/02 15:32:45;;;;;;;;;;;;;;;;;;5091093;28;1155;-72
2023/03/02 15:35:13;;;;;;;;;;;;;;;;;;5091156;28;1019;-72
2023/03/02 15:37:38;;;;;;;;;;;;;;;;;;5090930;28;1883;-72
2023/03/02 15:40:04;;;;;;;;;;;;;;;;;;5092052;28;1211;-72
2023/03/02 15:42:29;;;;;;;;;;;;;;;;;;5090767;28;987;-72
2023/03/02 15:44:54;;;;;;;;;;;;;;;;;;5091789;28;1269;-72
2023/03/02 15:47:20;;;;;;;;;;;;;;;;;;5074160;28;1052;-72
2023/03/02 15:49:45;;;;;;;;;;;;;;;;;;5091109;28;1313;-72
2023/03/02 15:52:11;;;;;;;;;;;;;;;;;;5091018;28;964;-72
2023/03/02 15:54:36;;;;;;;;;;;;;;;;;;5092192;28;895;-72
2023/03/02 15:57:02;;;;;;;;;;;;;;;;;;5092150;28;1973;-72
2023/03/02 15:59:28;;;;;;;;;;;;;;;;;;5073927;28;1153;-72
2023/03/02 16:01:58;;;;;;;;;;;;;;;;;;5092446;28;967;-72
2023/03/02 16:04:23;;;;;;;;;;;;;;;;;;5092097;28;880;-72
2023/03/02 16:06:49;;;;;;;;;;;;;;;;;;5092394;28;828;-72
2023/03/02 16:09:14;;;;;;;;;;;;;;;;;;5092085;28;860;-71
2023/03/02 16:11:39;;;;;;;;;;;;;;;;;;5092654;28;832;-72
2023/03/02 16:14:05;;;;;;;;;;;;;;;;;;5096601;28;903;-71
2023/03/02 16:16:30;;;;;;;;;;;;;;;;;;5095798;28;1901;-71
2023/03/02 16:18:56;;;;;;;;;;;;;;;;;;5095218;28;1226;-72
2023/03/02 16:21:22;;;;;;;;;;;;;;;;;;5096093;28;903;-71
2023/03/02 16:23:48;;;;;;;;;;;;;;;;;;5094869;28;1253;-71
2023/03/02 16:26:15;;;;;;;;;;;;;;;;;;5096621;28;754;-71
2023/03/02 16:28:41;;;;;;;;;;;;;;;;;;5096206;28;828;-72
2023/03/02 16:31:08;;;;;;;;;;;;;;;;;;5095736;28;928;-71
2023/03/02 16:33:34;;;;;;;;;;;;;;;;;;5094396;28;1154;-71
2023/03/02 16:35:59;;;;;;;;;;;;;;;;;;5094182;28;920;-72
2023/03/02 16:38:24;;;;;;;;;;;;;;;;;;5094007;28;1984;-72
2023/03/02 16:40:51;;;;;;;;;;;;;;;;;;5094148;28;840;-71
2023/03/02 16:43:19;;;;;;;;;;;;;;;;;;5094983;28;852;-71
2023/03/02 16:45:45;;;;;;;;;;;;;;;;;;5094414;28;1190;-71
2023/03/02 16:48:11;;;;;;;;;;;;;;;;;;5095043;28;1202;-71
2023/03/02 16:50:39;;;;;;;;;;;;;;;;;;5093635;28;1214;-71
2023/03/02 16:53:04;;;;;;;;;;;;;;;;;;5095016;28;965;-71
2023/03/02 16:55:30;;;;;;;;;;;;;;;;;;5095340;28;805;-71
2023/03/02 16:57:55;;;;;;;;;;;;;;;;;;5094997;28;1913;-70
2023/03/02 17:00:22;;;;;;;;;;;;;;;;;;5093711;28;820;-71
2023/03/02 17:02:47;;;;;;;;;;;;;;;;;;5094203;28;1010;-71
2023/03/02 17:05:13;;;;;;;;;;;;;;;;;;5093734;28;1003;-71
2023/03/02 17:07:38;;;;;;;;;;;;;;;;;;5076372;28;1325;-71
2023/03/02 17:10:05;;;;;;;;;;;;;;;;;;5095038;28;837;-71